sensor_id;sensor_type;location;lat;lon;timestamp;P1;durP1;ratioP1;P2;durP2;ratioP2
77522;SDS011;66637;-29.628;-49.938;2023-07-13T00:02:10;16.25;;;5.72;;
77522;SDS011;66637;-29.628;-49.938;2023-07-13T00:04:41;21.98;;;6.15;;
77522;SDS011;66637;-29.628;-49.938;2023-07-13T00:07:12;24.10;;;6.95;;
77522;SDS011;66637;-29.628;-49.938;2023-07-13T00:09:44;41.67;;;9.18;;
77522;SDS011;66637;-29.628;-49.938;2023-07-13T00:12:27;22.08;;;7.47;;
77522;SDS011;66637;-29.628;-49.938;2023-07-13T00:15:02;16.92;;;6.63;;
77522;SDS011;66637;-29.628;-49.938;2023-07-13T00:17:40;11.57;;;5.72;;
77522;SDS011;66637;-29.628;-49.938;2023-07-13T00:20:17;12.10;;;6.10;;
77522;SDS011;66637;-29.628;-49.938;2023-07-13T00:22:52;27.45;;;7.35;;
77522;SDS011;66637;-29.628;-49.938;2023-07-13T00:25:24;40.15;;;8.77;;
77522;SDS011;66637;-29.628;-49.938;2023-07-13T00:28:01;19.30;;;6.88;;
77522;SDS011;66637;-29.628;-49.938;2023-07-13T00:30:36;32.97;;;8.07;;
77522;SDS011;66637;-29.628;-49.938;2023-07-13T00:33:09;25.40;;;7.28;;
77522;SDS011;66637;-29.628;-49.938;2023-07-13T00:35:46;29.23;;;7.43;;
77522;SDS011;66637;-29.628;-49.938;2023-07-13T00:38:22;25.45;;;6.65;;
77522;SDS011;66637;-29.628;-49.938;2023-07-13T00:40:57;31.88;;;7.95;;
77522;SDS011;66637;-29.628;-49.938;2023-07-13T00:43:29;34.53;;;8.15;;
77522;SDS011;66637;-29.628;-49.938;2023-07-13T00:46:09;13.57;;;5.95;;
77522;SDS011;66637;-29.628;-49.938;2023-07-13T00:48:49;10.30;;;5.30;;
77522;SDS011;66637;-29.628;-49.938;2023-07-13T00:51:25;6.50;;;4.45;;
77522;SDS011;66637;-29.628;-49.938;2023-07-13T00:54:04;5.57;;;4.32;;
77522;SDS011;66637;-29.628;-49.938;2023-07-13T00:56:43;5.10;;;3.50;;
77522;SDS011;66637;-29.628;-49.938;2023-07-13T00:59:19;5.00;;;3.50;;
77522;SDS011;66637;-29.628;-49.938;2023-07-13T01:01:54;5.05;;;3.75;;
77522;SDS011;66637;-29.628;-49.938;2023-07-13T01:04:27;5.13;;;3.63;;
77522;SDS011;66637;-29.628;-49.938;2023-07-13T01:07:00;4.55;;;3.33;;
77522;SDS011;66637;-29.628;-49.938;2023-07-13T01:09:32;4.45;;;3.22;;
77522;SDS011;66637;-29.628;-49.938;2023-07-13T01:12:03;3.95;;;2.80;;
77522;SDS011;66637;-29.628;-49.938;2023-07-13T01:14:36;5.78;;;3.13;;
77522;SDS011;66637;-29.628;-49.938;2023-07-13T01:17:12;3.78;;;3.08;;
77522;SDS011;66637;-29.628;-49.938;2023-07-13T01:19:46;3.53;;;2.88;;
77522;SDS011;66637;-29.628;-49.938;2023-07-13T01:22:23;3.72;;;3.08;;
77522;SDS011;66637;-29.628;-49.938;2023-07-13T01:24:57;4.15;;;3.20;;
77522;SDS011;66637;-29.628;-49.938;2023-07-13T01:27:29;5.82;;;3.50;;
77522;SDS011;66637;-29.628;-49.938;2023-07-13T01:30:02;3.80;;;2.90;;
77522;SDS011;66637;-29.628;-49.938;2023-07-13T01:32:35;3.88;;;2.95;;
77522;SDS011;66637;-29.628;-49.938;2023-07-13T01:35:07;4.15;;;2.30;;
77522;SDS011;66637;-29.628;-49.938;2023-07-13T01:37:44;4.80;;;4.30;;
77522;SDS011;66637;-29.628;-49.938;2023-07-13T01:40:19;4.57;;;3.83;;
77522;SDS011;66637;-29.628;-49.938;2023-07-13T01:42:51;5.10;;;3.92;;
77522;SDS011;66637;-29.628;-49.938;2023-07-13T01:45:23;5.47;;;4.20;;
77522;SDS011;66637;-29.628;-49.938;2023-07-13T01:47:56;4.80;;;3.53;;
77522;SDS011;66637;-29.628;-49.938;2023-07-13T01:50:27;6.05;;;3.58;;
77522;SDS011;66637;-29.628;-49.938;2023-07-13T01:53:03;3.47;;;3.15;;
77522;SDS011;66637;-29.628;-49.938;2023-07-13T01:55:35;5.82;;;3.53;;
77522;SDS011;66637;-29.628;-49.938;2023-07-13T01:58:08;4.05;;;3.33;;
77522;SDS011;66637;-29.628;-49.938;2023-07-13T02:00:40;4.32;;;3.58;;
77522;SDS011;66637;-29.628;-49.938;2023-07-13T02:03:11;5.45;;;3.60;;
77522;SDS011;66637;-29.628;-49.938;2023-07-13T02:05:48;4.53;;;3.70;;
77522;SDS011;66637;-29.628;-49.938;2023-07-13T02:08:20;6.05;;;4.03;;
77522;SDS011;66637;-29.628;-49.938;2023-07-13T02:10:51;5.65;;;4.43;;
77522;SDS011;66637;-29.628;-49.938;2023-07-13T02:13:22;5.75;;;4.25;;
77522;SDS011;66637;-29.628;-49.938;2023-07-13T02:15:55;5.18;;;4.20;;
77522;SDS011;66637;-29.628;-49.938;2023-07-13T02:18:27;5.85;;;4.40;;
77522;SDS011;66637;-29.628;-49.938;2023-07-13T02:20:59;5.72;;;3.85;;
77522;SDS011;66637;-29.628;-49.938;2023-07-13T02:23:30;7.65;;;4.50;;
77522;SDS011;66637;-29.628;-49.938;2023-07-13T02:26:04;6.90;;;4.13;;
77522;SDS011;66637;-29.628;-49.938;2023-07-13T02:28:35;5.60;;;3.65;;
77522;SDS011;66637;-29.628;-49.938;2023-07-13T02:31:10;5.13;;;4.00;;
77522;SDS011;66637;-29.628;-49.938;2023-07-13T02:36:40;6.00;;;3.85;;
77522;SDS011;66637;-29.628;-49.938;2023-07-13T02:39:13;4.10;;;3.53;;
77522;SDS011;66637;-29.628;-49.938;2023-07-13T02:41:45;6.20;;;3.50;;
77522;SDS011;66637;-29.628;-49.938;2023-07-13T02:44:17;4.28;;;3.47;;
77522;SDS011;66637;-29.628;-49.938;2023-07-13T02:46:47;4.88;;;3.58;;
77522;SDS011;66637;-29.628;-49.938;2023-07-13T02:49:18;4.95;;;3.50;;
77522;SDS011;66637;-29.628;-49.938;2023-07-13T02:51:48;5.03;;;3.55;;
77522;SDS011;66637;-29.628;-49.938;2023-07-13T02:54:19;4.70;;;3.60;;
77522;SDS011;66637;-29.628;-49.938;2023-07-13T02:56:50;5.05;;;3.80;;
77522;SDS011;66637;-29.628;-49.938;2023-07-13T02:59:23;4.15;;;3.58;;
77522;SDS011;66637;-29.628;-49.938;2023-07-13T03:01:55;4.22;;;3.45;;
77522;SDS011;66637;-29.628;-49.938;2023-07-13T03:04:28;4.13;;;3.42;;
77522;SDS011;66637;-29.628;-49.938;2023-07-13T03:07:00;4.05;;;3.45;;
77522;SDS011;66637;-29.628;-49.938;2023-07-13T03:09:35;4.43;;;3.35;;
77522;SDS011;66637;-29.628;-49.938;2023-07-13T03:12:08;4.28;;;3.63;;
77522;SDS011;66637;-29.628;-49.938;2023-07-13T03:14:40;3.75;;;3.20;;
77522;SDS011;66637;-29.628;-49.938;2023-07-13T03:17:13;4.80;;;2.90;;
77522;SDS011;66637;-29.628;-49.938;2023-07-13T03:19:46;4.90;;;3.13;;
77522;SDS011;66637;-29.628;-49.938;2023-07-13T03:22:18;4.50;;;2.80;;
77522;SDS011;66637;-29.628;-49.938;2023-07-13T03:24:51;4.88;;;3.20;;
77522;SDS011;66637;-29.628;-49.938;2023-07-13T03:27:23;3.90;;;2.90;;
77522;SDS011;66637;-29.628;-49.938;2023-07-13T03:29:55;3.00;;;2.45;;
77522;SDS011;66637;-29.628;-49.938;2023-07-13T03:32:26;3.28;;;2.72;;
77522;SDS011;66637;-29.628;-49.938;2023-07-13T03:34:58;3.22;;;2.28;;
77522;SDS011;66637;-29.628;-49.938;2023-07-13T03:37:31;4.55;;;2.47;;
77522;SDS011;66637;-29.628;-49.938;2023-07-13T03:40:03;3.85;;;2.53;;
77522;SDS011;66637;-29.628;-49.938;2023-07-13T03:42:34;3.47;;;2.10;;
77522;SDS011;66637;-29.628;-49.938;2023-07-13T03:45:06;5.10;;;2.70;;
77522;SDS011;66637;-29.628;-49.938;2023-07-13T03:47:38;8.10;;;2.80;;
77522;SDS011;66637;-29.628;-49.938;2023-07-13T03:50:09;6.72;;;2.90;;
77522;SDS011;66637;-29.628;-49.938;2023-07-13T03:52:41;30.95;;;6.18;;
77522;SDS011;66637;-29.628;-49.938;2023-07-13T03:55:14;46.00;;;8.55;;
77522;SDS011;66637;-29.628;-49.938;2023-07-13T03:57:45;33.80;;;7.35;;
77522;SDS011;66637;-29.628;-49.938;2023-07-13T04:00:18;54.38;;;9.05;;
77522;SDS011;66637;-29.628;-49.938;2023-07-13T04:02:53;33.67;;;6.70;;
77522;SDS011;66637;-29.628;-49.938;2023-07-13T04:05:24;37.45;;;7.05;;
77522;SDS011;66637;-29.628;-49.938;2023-07-13T04:07:55;50.08;;;9.80;;
77522;SDS011;66637;-29.628;-49.938;2023-07-13T04:10:30;44.15;;;8.05;;
77522;SDS011;66637;-29.628;-49.938;2023-07-13T04:13:01;43.85;;;6.80;;
77522;SDS011;66637;-29.628;-49.938;2023-07-13T04:15:32;30.23;;;5.03;;
77522;SDS011;66637;-29.628;-49.938;2023-07-13T04:18:03;18.45;;;4.70;;
77522;SDS011;66637;-29.628;-49.938;2023-07-13T04:20:34;21.58;;;3.95;;
77522;SDS011;66637;-29.628;-49.938;2023-07-13T04:23:06;15.15;;;3.60;;
77522;SDS011;66637;-29.628;-49.938;2023-07-13T04:25:37;19.88;;;3.40;;
77522;SDS011;66637;-29.628;-49.938;2023-07-13T04:28:08;13.18;;;3.17;;
77522;SDS011;66637;-29.628;-49.938;2023-07-13T04:30:40;5.20;;;1.70;;
77522;SDS011;66637;-29.628;-49.938;2023-07-13T04:33:11;3.45;;;1.08;;
77522;SDS011;66637;-29.628;-49.938;2023-07-13T04:35:42;4.15;;;1.10;;
77522;SDS011;66637;-29.628;-49.938;2023-07-13T04:38:16;1.65;;;0.82;;
77522;SDS011;66637;-29.628;-49.938;2023-07-13T04:40:48;4.45;;;1.10;;
77522;SDS011;66637;-29.628;-49.938;2023-07-13T04:43:18;2.60;;;0.70;;
77522;SDS011;66637;-29.628;-49.938;2023-07-13T04:45:50;1.88;;;0.50;;
77522;SDS011;66637;-29.628;-49.938;2023-07-13T04:48:21;2.17;;;0.35;;
77522;SDS011;66637;-29.628;-49.938;2023-07-13T04:50:56;4.50;;;0.50;;
77522;SDS011;66637;-29.628;-49.938;2023-07-13T04:53:29;0.80;;;0.30;;
77522;SDS011;66637;-29.628;-49.938;2023-07-13T04:56:05;2.40;;;0.30;;
77522;SDS011;66637;-29.628;-49.938;2023-07-13T04:58:36;2.65;;;0.50;;
77522;SDS011;66637;-29.628;-49.938;2023-07-13T05:01:09;1.88;;;0.40;;
77522;SDS011;66637;-29.628;-49.938;2023-07-13T05:03:41;1.30;;;0.47;;
77522;SDS011;66637;-29.628;-49.938;2023-07-13T05:06:22;0.13;;;0.10;;
77522;SDS011;66637;-29.628;-49.938;2023-07-13T05:08:53;0.20;;;0.20;;
77522;SDS011;66637;-29.628;-49.938;2023-07-13T05:11:27;1.23;;;0.20;;
77522;SDS011;66637;-29.628;-49.938;2023-07-13T05:13:58;0.45;;;0.20;;
77522;SDS011;66637;-29.628;-49.938;2023-07-13T05:16:30;0.20;;;0.17;;
77522;SDS011;66637;-29.628;-49.938;2023-07-13T05:19:04;3.15;;;0.30;;
77522;SDS011;66637;-29.628;-49.938;2023-07-13T05:21:36;0.57;;;0.30;;
77522;SDS011;66637;-29.628;-49.938;2023-07-13T05:24:11;0.93;;;0.30;;
77522;SDS011;66637;-29.628;-49.938;2023-07-13T05:26:52;0.45;;;0.30;;
77522;SDS011;66637;-29.628;-49.938;2023-07-13T05:29:23;1.08;;;0.30;;
77522;SDS011;66637;-29.628;-49.938;2023-07-13T05:31:56;4.70;;;0.57;;
77522;SDS011;66637;-29.628;-49.938;2023-07-13T05:34:30;0.85;;;0.40;;
77522;SDS011;66637;-29.628;-49.938;2023-07-13T05:37:03;4.00;;;0.40;;
77522;SDS011;66637;-29.628;-49.938;2023-07-13T05:39:37;1.52;;;0.88;;
77522;SDS011;66637;-29.628;-49.938;2023-07-13T05:42:10;1.35;;;0.35;;
77522;SDS011;66637;-29.628;-49.938;2023-07-13T05:44:41;1.83;;;0.40;;
77522;SDS011;66637;-29.628;-49.938;2023-07-13T05:47:12;1.10;;;0.40;;
77522;SDS011;66637;-29.628;-49.938;2023-07-13T05:49:44;2.05;;;0.40;;
77522;SDS011;66637;-29.628;-49.938;2023-07-13T05:52:16;0.77;;;0.45;;
77522;SDS011;66637;-29.628;-49.938;2023-07-13T05:54:46;1.17;;;0.47;;
77522;SDS011;66637;-29.628;-49.938;2023-07-13T05:57:19;1.35;;;0.50;;
77522;SDS011;66637;-29.628;-49.938;2023-07-13T05:59:50;0.52;;;0.30;;
77522;SDS011;66637;-29.628;-49.938;2023-07-13T06:02:21;0.45;;;0.30;;
77522;SDS011;66637;-29.628;-49.938;2023-07-13T06:07:28;0.55;;;0.30;;
77522;SDS011;66637;-29.628;-49.938;2023-07-13T06:10:00;1.33;;;0.40;;
77522;SDS011;66637;-29.628;-49.938;2023-07-13T06:12:30;0.95;;;0.40;;
77522;SDS011;66637;-29.628;-49.938;2023-07-13T06:15:02;0.30;;;0.30;;
77522;SDS011;66637;-29.628;-49.938;2023-07-13T06:17:37;2.10;;;0.50;;
77522;SDS011;66637;-29.628;-49.938;2023-07-13T06:20:10;0.93;;;0.60;;
77522;SDS011;66637;-29.628;-49.938;2023-07-13T06:22:43;1.75;;;0.47;;
77522;SDS011;66637;-29.628;-49.938;2023-07-13T06:25:13;0.85;;;0.40;;
77522;SDS011;66637;-29.628;-49.938;2023-07-13T06:27:45;1.35;;;0.50;;
77522;SDS011;66637;-29.628;-49.938;2023-07-13T06:30:15;0.60;;;0.40;;
77522;SDS011;66637;-29.628;-49.938;2023-07-13T06:32:48;1.17;;;0.50;;
77522;SDS011;66637;-29.628;-49.938;2023-07-13T06:35:21;2.13;;;0.52;;
77522;SDS011;66637;-29.628;-49.938;2023-07-13T06:37:52;0.82;;;0.40;;
77522;SDS011;66637;-29.628;-49.938;2023-07-13T06:40:23;1.55;;;0.40;;
77522;SDS011;66637;-29.628;-49.938;2023-07-13T06:42:53;1.77;;;0.65;;
77522;SDS011;66637;-29.628;-49.938;2023-07-13T06:45:24;0.50;;;0.47;;
77522;SDS011;66637;-29.628;-49.938;2023-07-13T06:47:55;0.35;;;0.25;;
77522;SDS011;66637;-29.628;-49.938;2023-07-13T06:50:30;0.40;;;0.30;;
77522;SDS011;66637;-29.628;-49.938;2023-07-13T06:53:03;1.48;;;0.40;;
77522;SDS011;66637;-29.628;-49.938;2023-07-13T06:55:35;0.30;;;0.20;;
77522;SDS011;66637;-29.628;-49.938;2023-07-13T06:58:07;1.58;;;0.30;;
77522;SDS011;66637;-29.628;-49.938;2023-07-13T07:00:37;1.60;;;0.20;;
77522;SDS011;66637;-29.628;-49.938;2023-07-13T07:03:11;1.15;;;0.30;;
77522;SDS011;66637;-29.628;-49.938;2023-07-13T07:05:44;1.08;;;0.30;;
77522;SDS011;66637;-29.628;-49.938;2023-07-13T07:08:19;0.30;;;0.30;;
77522;SDS011;66637;-29.628;-49.938;2023-07-13T07:10:51;1.85;;;0.30;;
77522;SDS011;66637;-29.628;-49.938;2023-07-13T07:13:24;0.60;;;0.35;;
77522;SDS011;66637;-29.628;-49.938;2023-07-13T07:16:03;1.20;;;0.28;;
77522;SDS011;66637;-29.628;-49.938;2023-07-13T07:18:34;0.45;;;0.30;;
77522;SDS011;66637;-29.628;-49.938;2023-07-13T07:21:05;1.30;;;0.30;;
77522;SDS011;66637;-29.628;-49.938;2023-07-13T07:23:38;1.13;;;0.30;;
77522;SDS011;66637;-29.628;-49.938;2023-07-13T07:26:13;0.30;;;0.15;;
77522;SDS011;66637;-29.628;-49.938;2023-07-13T07:28:49;0.25;;;0.20;;
77522;SDS011;66637;-29.628;-49.938;2023-07-13T07:31:43;0.55;;;0.30;;
77522;SDS011;66637;-29.628;-49.938;2023-07-13T07:34:33;1.20;;;0.30;;
77522;SDS011;66637;-29.628;-49.938;2023-07-13T07:37:18;1.13;;;0.28;;
77522;SDS011;66637;-29.628;-49.938;2023-07-13T07:40:10;1.15;;;0.30;;
77522;SDS011;66637;-29.628;-49.938;2023-07-13T07:42:49;0.30;;;0.20;;
77522;SDS011;66637;-29.628;-49.938;2023-07-13T07:45:20;0.77;;;0.20;;
77522;SDS011;66637;-29.628;-49.938;2023-07-13T07:47:54;1.13;;;0.17;;
77522;SDS011;66637;-29.628;-49.938;2023-07-13T07:50:29;0.30;;;0.20;;
77522;SDS011;66637;-29.628;-49.938;2023-07-13T07:53:05;3.22;;;0.20;;
77522;SDS011;66637;-29.628;-49.938;2023-07-13T07:55:38;0.88;;;0.20;;
77522;SDS011;66637;-29.628;-49.938;2023-07-13T07:58:13;0.32;;;0.13;;
77522;SDS011;66637;-29.628;-49.938;2023-07-13T08:01:05;2.92;;;0.28;;
77522;SDS011;66637;-29.628;-49.938;2023-07-13T08:03:39;1.25;;;0.10;;
77522;SDS011;66637;-29.628;-49.938;2023-07-13T08:06:13;0.30;;;0.10;;
77522;SDS011;66637;-29.628;-49.938;2023-07-13T08:09:05;0.30;;;0.10;;
77522;SDS011;66637;-29.628;-49.938;2023-07-13T08:11:38;0.80;;;0.17;;
77522;SDS011;66637;-29.628;-49.938;2023-07-13T08:14:11;0.40;;;0.13;;
77522;SDS011;66637;-29.628;-49.938;2023-07-13T08:16:46;1.10;;;0.10;;
77522;SDS011;66637;-29.628;-49.938;2023-07-13T08:19:18;0.30;;;0.10;;
77522;SDS011;66637;-29.628;-49.938;2023-07-13T08:24:49;0.05;;;0.00;;
77522;SDS011;66637;-29.628;-49.938;2023-07-13T08:27:26;0.00;;;0.00;;
77522;SDS011;66637;-29.628;-49.938;2023-07-13T08:30:01;1.30;;;0.30;;
77522;SDS011;66637;-29.628;-49.938;2023-07-13T08:32:50;0.30;;;0.30;;
77522;SDS011;66637;-29.628;-49.938;2023-07-13T08:35:29;1.00;;;0.00;;
77522;SDS011;66637;-29.628;-49.938;2023-07-13T08:38:01;0.93;;;0.10;;
77522;SDS011;66637;-29.628;-49.938;2023-07-13T08:40:32;1.52;;;0.10;;
77522;SDS011;66637;-29.628;-49.938;2023-07-13T08:43:04;0.00;;;0.00;;
77522;SDS011;66637;-29.628;-49.938;2023-07-13T08:45:43;0.20;;;0.10;;
77522;SDS011;66637;-29.628;-49.938;2023-07-13T08:48:27;1.38;;;0.10;;
77522;SDS011;66637;-29.628;-49.938;2023-07-13T08:51:30;0.40;;;0.10;;
77522;SDS011;66637;-29.628;-49.938;2023-07-13T08:54:24;1.02;;;0.32;;
77522;SDS011;66637;-29.628;-49.938;2023-07-13T08:56:58;0.00;;;0.00;;
77522;SDS011;66637;-29.628;-49.938;2023-07-13T08:59:33;0.10;;;0.00;;
77522;SDS011;66637;-29.628;-49.938;2023-07-13T09:02:09;0.45;;;0.22;;
77522;SDS011;66637;-29.628;-49.938;2023-07-13T09:10:44;2.53;;;0.10;;
77522;SDS011;66637;-29.628;-49.938;2023-07-13T09:13:21;0.10;;;0.00;;
77522;SDS011;66637;-29.628;-49.938;2023-07-13T09:18:42;0.75;;;0.10;;
77522;SDS011;66637;-29.628;-49.938;2023-07-13T09:21:27;1.23;;;0.20;;
77522;SDS011;66637;-29.628;-49.938;2023-07-13T09:27:30;0.30;;;0.10;;
77522;SDS011;66637;-29.628;-49.938;2023-07-13T09:30:30;0.60;;;0.17;;
77522;SDS011;66637;-29.628;-49.938;2023-07-13T09:33:25;0.38;;;0.10;;
77522;SDS011;66637;-29.628;-49.938;2023-07-13T09:36:05;1.45;;;0.10;;
77522;SDS011;66637;-29.628;-49.938;2023-07-13T09:39:08;0.10;;;0.00;;
77522;SDS011;66637;-29.628;-49.938;2023-07-13T09:44:38;1.50;;;0.10;;
77522;SDS011;66637;-29.628;-49.938;2023-07-13T09:47:30;0.20;;;0.00;;
77522;SDS011;66637;-29.628;-49.938;2023-07-13T09:50:10;0.17;;;0.10;;
77522;SDS011;66637;-29.628;-49.938;2023-07-13T09:52:47;0.60;;;0.17;;
77522;SDS011;66637;-29.628;-49.938;2023-07-13T09:55:25;0.40;;;0.10;;
77522;SDS011;66637;-29.628;-49.938;2023-07-13T09:58:21;0.22;;;0.00;;
77522;SDS011;66637;-29.628;-49.938;2023-07-13T10:03:28;0.63;;;0.10;;
77522;SDS011;66637;-29.628;-49.938;2023-07-13T10:06:13;1.17;;;0.17;;
77522;SDS011;66637;-29.628;-49.938;2023-07-13T10:08:52;0.08;;;0.00;;
77522;SDS011;66637;-29.628;-49.938;2023-07-13T10:11:28;0.10;;;0.10;;
77522;SDS011;66637;-29.628;-49.938;2023-07-13T10:14:16;0.10;;;0.10;;
77522;SDS011;66637;-29.628;-49.938;2023-07-13T10:17:00;0.20;;;0.08;;
77522;SDS011;66637;-29.628;-49.938;2023-07-13T10:19:42;1.33;;;0.10;;
77522;SDS011;66637;-29.628;-49.938;2023-07-13T10:25:47;0.15;;;0.10;;
77522;SDS011;66637;-29.628;-49.938;2023-07-13T10:28:29;1.15;;;0.10;;
77522;SDS011;66637;-29.628;-49.938;2023-07-13T10:31:11;0.00;;;0.00;;
77522;SDS011;66637;-29.628;-49.938;2023-07-13T10:33:47;0.20;;;0.13;;
77522;SDS011;66637;-29.628;-49.938;2023-07-13T10:36:43;0.05;;;0.03;;
77522;SDS011;66637;-29.628;-49.938;2023-07-13T10:39:22;0.35;;;0.00;;
77522;SDS011;66637;-29.628;-49.938;2023-07-13T10:44:42;0.00;;;0.00;;
77522;SDS011;66637;-29.628;-49.938;2023-07-13T10:47:25;0.00;;;0.00;;
77522;SDS011;66637;-29.628;-49.938;2023-07-13T10:50:00;0.00;;;0.00;;
77522;SDS011;66637;-29.628;-49.938;2023-07-13T10:55:31;0.17;;;0.10;;
77522;SDS011;66637;-29.628;-49.938;2023-07-13T10:58:21;0.43;;;0.10;;
77522;SDS011;66637;-29.628;-49.938;2023-07-13T11:03:50;0.60;;;0.00;;
77522;SDS011;66637;-29.628;-49.938;2023-07-13T11:06:33;1.42;;;0.00;;
77522;SDS011;66637;-29.628;-49.938;2023-07-13T11:20:44;0.68;;;0.00;;
77522;SDS011;66637;-29.628;-49.938;2023-07-13T11:26:37;2.90;;;0.10;;
77522;SDS011;66637;-29.628;-49.938;2023-07-13T11:29:24;0.90;;;0.08;;
77522;SDS011;66637;-29.628;-49.938;2023-07-13T11:32:10;2.75;;;0.17;;
77522;SDS011;66637;-29.628;-49.938;2023-07-13T11:34:55;0.20;;;0.00;;
77522;SDS011;66637;-29.628;-49.938;2023-07-13T11:37:28;0.00;;;0.00;;
77522;SDS011;66637;-29.628;-49.938;2023-07-13T11:40:00;0.00;;;0.00;;
77522;SDS011;66637;-29.628;-49.938;2023-07-13T11:42:32;0.57;;;0.05;;
77522;SDS011;66637;-29.628;-49.938;2023-07-13T11:45:14;1.20;;;0.00;;
77522;SDS011;66637;-29.628;-49.938;2023-07-13T11:48:22;0.00;;;0.00;;
77522;SDS011;66637;-29.628;-49.938;2023-07-13T11:51:09;0.32;;;0.00;;
77522;SDS011;66637;-29.628;-49.938;2023-07-13T11:54:05;5.53;;;0.10;;
77522;SDS011;66637;-29.628;-49.938;2023-07-13T11:56:45;0.75;;;0.00;;
77522;SDS011;66637;-29.628;-49.938;2023-07-13T11:59:22;0.10;;;0.00;;
77522;SDS011;66637;-29.628;-49.938;2023-07-13T12:01:55;1.10;;;0.10;;
77522;SDS011;66637;-29.628;-49.938;2023-07-13T12:04:30;1.08;;;0.00;;
77522;SDS011;66637;-29.628;-49.938;2023-07-13T12:07:17;0.43;;;0.00;;
77522;SDS011;66637;-29.628;-49.938;2023-07-13T12:10:30;0.13;;;0.00;;
77522;SDS011;66637;-29.628;-49.938;2023-07-13T12:13:00;0.22;;;0.00;;
77522;SDS011;66637;-29.628;-49.938;2023-07-13T12:15:36;0.13;;;0.05;;
77522;SDS011;66637;-29.628;-49.938;2023-07-13T12:18:21;0.32;;;0.00;;
77522;SDS011;66637;-29.628;-49.938;2023-07-13T12:20:55;1.15;;;0.00;;
77522;SDS011;66637;-29.628;-49.938;2023-07-13T12:23:29;1.17;;;0.10;;
77522;SDS011;66637;-29.628;-49.938;2023-07-13T12:26:04;1.60;;;0.03;;
77522;SDS011;66637;-29.628;-49.938;2023-07-13T12:28:45;0.08;;;0.00;;
77522;SDS011;66637;-29.628;-49.938;2023-07-13T12:34:16;0.00;;;0.00;;
77522;SDS011;66637;-29.628;-49.938;2023-07-13T12:36:54;0.88;;;0.10;;
77522;SDS011;66637;-29.628;-49.938;2023-07-13T12:39:35;0.00;;;0.00;;
77522;SDS011;66637;-29.628;-49.938;2023-07-13T12:42:20;0.60;;;0.03;;
77522;SDS011;66637;-29.628;-49.938;2023-07-13T12:45:03;0.17;;;0.10;;
77522;SDS011;66637;-29.628;-49.938;2023-07-13T12:47:48;0.30;;;0.03;;
77522;SDS011;66637;-29.628;-49.938;2023-07-13T12:53:02;0.00;;;0.00;;
77522;SDS011;66637;-29.628;-49.938;2023-07-13T12:55:45;0.10;;;0.00;;
77522;SDS011;66637;-29.628;-49.938;2023-07-13T12:58:25;0.00;;;0.00;;
77522;SDS011;66637;-29.628;-49.938;2023-07-13T13:00:59;1.98;;;0.10;;
77522;SDS011;66637;-29.628;-49.938;2023-07-13T13:03:37;1.15;;;0.00;;
77522;SDS011;66637;-29.628;-49.938;2023-07-13T13:08:54;0.30;;;0.10;;
77522;SDS011;66637;-29.628;-49.938;2023-07-13T13:11:28;0.47;;;0.10;;
77522;SDS011;66637;-29.628;-49.938;2023-07-13T13:14:01;0.45;;;0.10;;
77522;SDS011;66637;-29.628;-49.938;2023-07-13T13:16:35;0.30;;;0.13;;
77522;SDS011;66637;-29.628;-49.938;2023-07-13T13:21:48;2.13;;;0.20;;
77522;SDS011;66637;-29.628;-49.938;2023-07-13T13:24:22;0.85;;;0.20;;
77522;SDS011;66637;-29.628;-49.938;2023-07-13T13:26:56;0.47;;;0.13;;
77522;SDS011;66637;-29.628;-49.938;2023-07-13T13:29:26;0.52;;;0.13;;
77522;SDS011;66637;-29.628;-49.938;2023-07-13T13:31:59;1.50;;;0.28;;
77522;SDS011;66637;-29.628;-49.938;2023-07-13T13:34:33;3.28;;;0.40;;
77522;SDS011;66637;-29.628;-49.938;2023-07-13T13:37:19;3.90;;;0.50;;
77522;SDS011;66637;-29.628;-49.938;2023-07-13T13:39:52;5.85;;;0.75;;
77522;SDS011;66637;-29.628;-49.938;2023-07-13T13:42:34;6.57;;;1.17;;
77522;SDS011;66637;-29.628;-49.938;2023-07-13T13:45:04;8.45;;;1.00;;
77522;SDS011;66637;-29.628;-49.938;2023-07-13T13:47:37;7.97;;;0.98;;
77522;SDS011;66637;-29.628;-49.938;2023-07-13T13:50:19;7.57;;;0.88;;
77522;SDS011;66637;-29.628;-49.938;2023-07-13T13:52:54;9.00;;;1.15;;
77522;SDS011;66637;-29.628;-49.938;2023-07-13T13:55:28;8.27;;;1.05;;
77522;SDS011;66637;-29.628;-49.938;2023-07-13T13:57:59;8.75;;;1.50;;
77522;SDS011;66637;-29.628;-49.938;2023-07-13T14:00:29;11.65;;;1.60;;
77522;SDS011;66637;-29.628;-49.938;2023-07-13T14:03:01;9.65;;;1.10;;
77522;SDS011;66637;-29.628;-49.938;2023-07-13T14:05:36;12.05;;;1.60;;
77522;SDS011;66637;-29.628;-49.938;2023-07-13T14:08:16;10.43;;;1.50;;
77522;SDS011;66637;-29.628;-49.938;2023-07-13T14:10:51;9.60;;;1.50;;
77522;SDS011;66637;-29.628;-49.938;2023-07-13T14:13:33;10.57;;;1.15;;
77522;SDS011;66637;-29.628;-49.938;2023-07-13T14:16:13;11.35;;;1.50;;
77522;SDS011;66637;-29.628;-49.938;2023-07-13T14:18:49;12.90;;;1.52;;
77522;SDS011;66637;-29.628;-49.938;2023-07-13T14:21:21;15.50;;;1.73;;
77522;SDS011;66637;-29.628;-49.938;2023-07-13T14:23:59;11.82;;;1.23;;
77522;SDS011;66637;-29.628;-49.938;2023-07-13T14:26:32;9.18;;;1.05;;
77522;SDS011;66637;-29.628;-49.938;2023-07-13T14:29:14;10.30;;;1.60;;
77522;SDS011;66637;-29.628;-49.938;2023-07-13T14:31:51;16.00;;;1.55;;
77522;SDS011;66637;-29.628;-49.938;2023-07-13T14:34:22;10.18;;;1.63;;
77522;SDS011;66637;-29.628;-49.938;2023-07-13T14:36:53;8.88;;;1.60;;
77522;SDS011;66637;-29.628;-49.938;2023-07-13T14:39:25;7.80;;;1.15;;
77522;SDS011;66637;-29.628;-49.938;2023-07-13T14:41:57;7.05;;;1.25;;
77522;SDS011;66637;-29.628;-49.938;2023-07-13T14:44:31;5.32;;;0.82;;
77522;SDS011;66637;-29.628;-49.938;2023-07-13T14:47:03;6.35;;;0.68;;
77522;SDS011;66637;-29.628;-49.938;2023-07-13T14:49:36;3.20;;;0.95;;
77522;SDS011;66637;-29.628;-49.938;2023-07-13T14:52:16;3.67;;;0.50;;
77522;SDS011;66637;-29.628;-49.938;2023-07-13T14:54:54;1.73;;;0.60;;
77522;SDS011;66637;-29.628;-49.938;2023-07-13T14:57:24;4.88;;;0.60;;
77522;SDS011;66637;-29.628;-49.938;2023-07-13T14:59:55;7.03;;;0.52;;
77522;SDS011;66637;-29.628;-49.938;2023-07-13T15:02:31;6.78;;;0.90;;
77522;SDS011;66637;-29.628;-49.938;2023-07-13T15:05:18;9.20;;;0.95;;
77522;SDS011;66637;-29.628;-49.938;2023-07-13T15:08:03;4.57;;;0.70;;
77522;SDS011;66637;-29.628;-49.938;2023-07-13T15:10:35;2.45;;;0.55;;
77522;SDS011;66637;-29.628;-49.938;2023-07-13T15:13:16;2.22;;;0.40;;
77522;SDS011;66637;-29.628;-49.938;2023-07-13T15:15:49;4.32;;;0.70;;
77522;SDS011;66637;-29.628;-49.938;2023-07-13T15:18:23;3.90;;;0.50;;
77522;SDS011;66637;-29.628;-49.938;2023-07-13T15:20:56;2.53;;;0.35;;
77522;SDS011;66637;-29.628;-49.938;2023-07-13T15:23:33;1.70;;;0.20;;
77522;SDS011;66637;-29.628;-49.938;2023-07-13T15:26:04;2.05;;;0.20;;
77522;SDS011;66637;-29.628;-49.938;2023-07-13T15:28:37;1.42;;;0.20;;
77522;SDS011;66637;-29.628;-49.938;2023-07-13T15:31:17;2.88;;;0.20;;
77522;SDS011;66637;-29.628;-49.938;2023-07-13T15:33:51;2.22;;;0.30;;
77522;SDS011;66637;-29.628;-49.938;2023-07-13T15:36:45;6.68;;;0.65;;
77522;SDS011;66637;-29.628;-49.938;2023-07-13T15:39:18;4.90;;;0.60;;
77522;SDS011;66637;-29.628;-49.938;2023-07-13T15:41:50;5.25;;;0.88;;
77522;SDS011;66637;-29.628;-49.938;2023-07-13T15:44:28;3.25;;;0.80;;
77522;SDS011;66637;-29.628;-49.938;2023-07-13T15:47:01;4.07;;;0.50;;
77522;SDS011;66637;-29.628;-49.938;2023-07-13T15:49:33;2.92;;;0.30;;
77522;SDS011;66637;-29.628;-49.938;2023-07-13T15:52:11;4.03;;;0.80;;
77522;SDS011;66637;-29.628;-49.938;2023-07-13T15:54:49;6.38;;;0.80;;
77522;SDS011;66637;-29.628;-49.938;2023-07-13T15:57:22;7.07;;;0.73;;
77522;SDS011;66637;-29.628;-49.938;2023-07-13T15:59:54;3.97;;;0.70;;